createdAt,value
2017-12-22T00:02:25.084Z,6.60
2017-12-22T00:04:53.403Z,6.60
2017-12-22T00:07:22.577Z,6.60
2017-12-22T00:09:51.653Z,6.70
2017-12-22T00:12:20.744Z,6.70
2017-12-22T00:14:49.057Z,6.60
2017-12-22T00:17:17.414Z,6.70
2017-12-22T00:19:45.738Z,6.70
2017-12-22T00:22:14.872Z,6.60
2017-12-22T00:24:43.210Z,6.60
2017-12-22T00:27:12.543Z,6.60
2017-12-22T00:29:40.984Z,6.60
2017-12-22T00:32:09.318Z,6.60
2017-12-22T00:34:37.685Z,6.60
2017-12-22T00:37:05.996Z,6.70
2017-12-22T00:39:34.291Z,6.70
2017-12-22T00:42:02.639Z,6.70
2017-12-22T00:44:30.962Z,6.70
2017-12-22T00:47:00.000Z,6.80
2017-12-22T00:49:29.795Z,6.70
2017-12-22T00:51:59.587Z,6.70
2017-12-22T00:54:29.664Z,6.70
2017-12-22T00:56:59.249Z,6.70
2017-12-22T00:59:28.600Z,6.70
2017-12-22T01:01:56.951Z,6.70
2017-12-22T01:04:25.256Z,6.70
2017-12-22T01:06:54.341Z,6.70
2017-12-22T01:09:22.726Z,6.70
2017-12-22T01:11:51.077Z,6.80
2017-12-22T01:14:20.293Z,6.80
2017-12-22T01:16:54.881Z,6.80
2017-12-22T01:19:23.254Z,6.80
2017-12-22T01:21:51.623Z,6.80
2017-12-22T01:24:20.697Z,6.70
2017-12-22T01:26:49.078Z,6.70
2017-12-22T01:29:17.450Z,6.70
2017-12-22T01:31:45.772Z,6.70
2017-12-22T01:34:14.128Z,6.70
2017-12-22T01:36:42.479Z,6.70
2017-12-22T01:39:10.840Z,6.70
2017-12-22T01:41:39.216Z,6.70
2017-12-22T01:44:07.533Z,6.70
2017-12-22T01:46:35.841Z,6.70
2017-12-22T01:49:04.241Z,6.70
2017-12-22T01:51:33.289Z,6.70
2017-12-22T01:54:03.029Z,6.70
2017-12-22T01:56:32.299Z,6.70
2017-12-22T01:59:00.630Z,6.70
2017-12-22T02:01:28.967Z,6.70
2017-12-22T02:03:58.041Z,6.70
2017-12-22T02:06:27.145Z,6.70
2017-12-22T02:08:55.444Z,6.70
2017-12-22T02:11:23.820Z,6.80
2017-12-22T02:13:52.128Z,6.80
2017-12-22T02:16:20.443Z,6.70
2017-12-22T02:18:49.549Z,6.70
2017-12-22T02:21:17.885Z,6.70
2017-12-22T02:23:46.261Z,6.70
2017-12-22T02:26:15.493Z,6.70
2017-12-22T02:28:44.580Z,6.60
2017-12-22T02:31:13.761Z,6.70
2017-12-22T02:33:42.075Z,6.70
2017-12-22T02:36:10.389Z,6.70
2017-12-22T02:38:38.718Z,6.80
2017-12-22T02:41:07.081Z,6.70
2017-12-22T02:43:35.397Z,6.70
2017-12-22T02:46:03.771Z,6.70
2017-12-22T02:48:33.190Z,6.70
2017-12-22T02:51:02.130Z,6.70
2017-12-22T02:53:30.502Z,6.70
2017-12-22T02:55:58.801Z,6.70
2017-12-22T02:58:27.145Z,6.70
2017-12-22T03:00:55.447Z,6.70
2017-12-22T03:03:24.547Z,6.70
2017-12-22T03:05:52.849Z,6.70
2017-12-22T03:08:21.944Z,6.60
2017-12-22T03:10:50.245Z,6.60
2017-12-22T03:13:18.588Z,6.60
2017-12-22T03:15:46.926Z,6.70
2017-12-22T03:18:15.301Z,6.70
2017-12-22T03:20:43.665Z,6.60
2017-12-22T03:23:12.040Z,6.70
2017-12-22T03:25:40.412Z,6.70
2017-12-22T03:28:08.714Z,6.70
2017-12-22T03:30:37.043Z,6.60
2017-12-22T03:33:06.143Z,6.60
2017-12-22T03:35:35.247Z,6.60
2017-12-22T03:38:04.449Z,6.60
2017-12-22T03:40:33.523Z,6.50
2017-12-22T03:43:01.875Z,6.50
2017-12-22T03:45:30.201Z,6.60
2017-12-22T03:47:58.568Z,6.60
2017-12-22T03:50:26.869Z,6.60
2017-12-22T03:52:55.209Z,6.60
2017-12-22T03:55:23.548Z,6.60
2017-12-22T03:57:51.890Z,6.50
2017-12-22T04:00:20.215Z,6.50
2017-12-22T04:02:48.521Z,6.50
2017-12-22T04:05:16.952Z,6.50
2017-12-22T04:07:45.299Z,6.50
2017-12-22T04:10:13.597Z,6.50
2017-12-22T04:12:41.933Z,6.60
2017-12-22T04:15:10.241Z,6.50
2017-12-22T04:17:39.332Z,6.50
2017-12-22T04:20:07.664Z,6.50
2017-12-22T04:22:35.980Z,6.60
2017-12-22T04:25:04.383Z,6.50
2017-12-22T04:27:32.702Z,6.50
2017-12-22T04:30:01.032Z,6.50
2017-12-22T04:32:29.333Z,6.50
2017-12-22T04:34:57.651Z,6.60
2017-12-22T04:37:25.983Z,6.60
2017-12-22T04:39:54.307Z,6.60
2017-12-22T04:42:22.645Z,6.50
2017-12-22T04:44:51.701Z,6.50
2017-12-22T04:47:20.145Z,6.50
2017-12-22T04:49:48.463Z,6.50
2017-12-22T04:52:16.814Z,6.60
2017-12-22T04:54:45.188Z,6.50
2017-12-22T04:57:13.520Z,6.50
2017-12-22T04:59:41.830Z,6.50
2017-12-22T05:02:10.163Z,6.50
2017-12-22T05:04:38.473Z,6.50
2017-12-22T05:07:06.769Z,6.50
2017-12-22T05:09:36.637Z,6.50
2017-12-22T05:12:04.940Z,6.50
2017-12-22T05:14:33.238Z,6.50
2017-12-22T05:17:01.574Z,6.50
2017-12-22T05:19:30.677Z,6.50
2017-12-22T05:21:59.082Z,6.50
2017-12-22T05:24:27.404Z,6.50
2017-12-22T05:26:55.729Z,6.50
2017-12-22T05:29:24.790Z,6.50
2017-12-22T05:31:53.908Z,6.50
2017-12-22T05:34:22.222Z,6.50
2017-12-22T05:36:50.585Z,6.50
2017-12-22T05:39:18.941Z,6.50
2017-12-22T05:41:47.236Z,6.50
2017-12-22T05:44:16.295Z,6.50
2017-12-22T05:46:45.393Z,6.50
2017-12-22T05:49:13.703Z,6.40
2017-12-22T05:51:43.530Z,6.50
2017-12-22T05:54:11.835Z,6.50
2017-12-22T05:56:40.187Z,6.50
2017-12-22T05:59:08.529Z,6.50
2017-12-22T06:01:36.867Z,6.50
2017-12-22T06:04:05.273Z,6.50
2017-12-22T06:06:33.576Z,6.50
2017-12-22T06:09:01.944Z,6.50
2017-12-22T06:11:30.253Z,6.50
2017-12-22T06:13:59.378Z,6.50
2017-12-22T06:16:27.686Z,6.40
2017-12-22T06:18:56.004Z,6.50
2017-12-22T06:21:24.374Z,6.50
2017-12-22T06:23:53.469Z,6.50
2017-12-22T06:26:21.781Z,6.50
2017-12-22T06:28:50.132Z,6.50
2017-12-22T06:31:18.607Z,6.50
2017-12-22T06:33:47.069Z,6.50
2017-12-22T06:36:15.851Z,6.50
2017-12-22T06:38:45.361Z,6.50
2017-12-22T06:41:15.732Z,6.50
2017-12-22T06:43:45.357Z,6.50
2017-12-22T06:46:13.712Z,6.50
2017-12-22T06:48:42.342Z,6.50
2017-12-22T06:51:16.058Z,6.40
2017-12-22T06:53:45.321Z,6.50
2017-12-22T06:56:13.688Z,6.40
2017-12-22T06:58:42.439Z,6.50
2017-12-22T07:01:10.769Z,6.50
2017-12-22T07:03:39.125Z,6.50
2017-12-22T07:06:07.412Z,6.50
2017-12-22T07:08:35.763Z,6.50
2017-12-22T07:11:04.073Z,6.50
2017-12-22T07:13:32.417Z,6.50
2017-12-22T07:16:00.753Z,6.50
2017-12-22T07:18:29.099Z,6.50
2017-12-22T07:20:57.424Z,6.50
2017-12-22T07:23:25.790Z,6.50
2017-12-22T07:25:54.164Z,6.50
2017-12-22T07:28:22.522Z,6.50
2017-12-22T07:30:50.832Z,6.50
2017-12-22T07:33:19.125Z,6.50
2017-12-22T07:35:47.465Z,6.50
2017-12-22T07:38:15.794Z,6.60
2017-12-22T07:40:44.445Z,6.60
2017-12-22T07:43:13.602Z,6.60
2017-12-22T07:45:41.933Z,6.60
2017-12-22T07:48:10.269Z,6.60
2017-12-22T07:50:38.577Z,6.60
2017-12-22T07:53:06.881Z,6.60
2017-12-22T07:55:35.209Z,6.60
2017-12-22T07:58:03.525Z,6.60
2017-12-22T08:00:31.861Z,6.60
2017-12-22T08:03:00.221Z,6.70
2017-12-22T08:05:28.661Z,6.70
2017-12-22T08:07:56.979Z,6.70
2017-12-22T08:10:25.277Z,6.70
2017-12-22T08:12:53.869Z,6.70
2017-12-22T08:15:22.249Z,6.70
2017-12-22T08:17:51.365Z,6.70
2017-12-22T08:20:19.700Z,6.70
2017-12-22T08:22:48.005Z,6.70
2017-12-22T08:25:16.337Z,6.70
2017-12-22T08:27:45.289Z,6.70
2017-12-22T08:30:13.637Z,6.70
2017-12-22T08:32:41.987Z,6.80
2017-12-22T08:35:11.166Z,6.80
2017-12-22T08:37:39.515Z,6.80
2017-12-22T08:40:07.816Z,6.80
2017-12-22T08:42:36.166Z,6.80
2017-12-22T08:45:04.493Z,6.70
2017-12-22T08:47:32.822Z,6.70
2017-12-22T08:50:01.133Z,6.70
2017-12-22T08:52:30.228Z,6.70
2017-12-22T08:54:58.629Z,6.70
2017-12-22T08:57:26.961Z,6.70
2017-12-22T08:59:55.285Z,6.70
2017-12-22T09:02:23.625Z,6.80
2017-12-22T09:04:51.963Z,6.70
2017-12-22T09:07:22.768Z,6.80
2017-12-22T09:09:51.857Z,6.80
2017-12-22T09:12:20.515Z,6.80
2017-12-22T09:14:48.867Z,6.70
2017-12-22T09:17:17.310Z,6.80
2017-12-22T09:19:46.612Z,6.80
2017-12-22T09:22:14.913Z,6.80
2017-12-22T09:24:45.315Z,6.80
2017-12-22T09:27:14.673Z,6.80
2017-12-22T09:29:43.981Z,6.80
2017-12-22T09:32:12.756Z,6.90
2017-12-22T09:34:42.718Z,6.90
2017-12-22T09:37:12.865Z,6.90
2017-12-22T09:39:42.914Z,6.90
2017-12-22T09:42:12.810Z,6.90
2017-12-22T09:44:41.210Z,6.90
2017-12-22T09:47:10.319Z,6.90
2017-12-22T09:49:38.662Z,6.90
2017-12-22T09:52:07.054Z,6.90
2017-12-22T09:54:35.371Z,6.90
2017-12-22T09:57:04.469Z,6.90
2017-12-22T09:59:32.785Z,6.90
2017-12-22T10:02:01.112Z,6.90
2017-12-22T10:04:29.424Z,7.00
2017-12-22T10:06:57.799Z,7.00
2017-12-22T10:09:26.882Z,7.00
2017-12-22T10:11:55.868Z,7.00
2017-12-22T10:14:24.970Z,7.00
2017-12-22T10:16:53.264Z,7.00
2017-12-22T10:19:21.676Z,7.10
2017-12-22T10:21:50.012Z,7.10
2017-12-22T10:24:18.324Z,7.10
2017-12-22T10:26:47.463Z,7.10
2017-12-22T10:29:15.951Z,7.10
2017-12-22T10:31:44.528Z,7.10
2017-12-22T10:34:13.633Z,7.20
2017-12-22T10:36:42.075Z,7.20
2017-12-22T10:39:11.961Z,7.30
2017-12-22T10:41:40.316Z,7.30
2017-12-22T10:44:08.720Z,7.30
2017-12-22T10:46:36.985Z,7.30
2017-12-22T10:49:05.327Z,7.20
2017-12-22T10:51:33.660Z,7.20
2017-12-22T10:54:02.005Z,7.20
2017-12-22T10:56:31.114Z,7.30
2017-12-22T10:58:59.430Z,7.20
2017-12-22T11:01:28.577Z,7.30
2017-12-22T11:03:56.901Z,7.30
2017-12-22T11:06:25.972Z,7.40
2017-12-22T11:08:55.073Z,7.40
2017-12-22T11:11:23.408Z,7.40
2017-12-22T11:13:51.793Z,7.40
2017-12-22T11:16:20.123Z,7.30
2017-12-22T11:18:48.536Z,7.30
2017-12-22T11:21:16.853Z,7.30
2017-12-22T11:23:45.377Z,7.40
2017-12-22T11:26:13.738Z,7.30
2017-12-22T11:28:42.078Z,7.50
2017-12-22T11:31:11.179Z,7.50
2017-12-22T11:33:39.546Z,7.40
2017-12-22T11:36:08.213Z,7.50
2017-12-22T11:38:36.557Z,7.50
2017-12-22T11:41:04.905Z,7.50
2017-12-22T11:43:34.006Z,7.50
2017-12-22T11:46:03.111Z,7.50
2017-12-22T11:48:31.405Z,7.50
2017-12-22T11:50:59.716Z,7.50
2017-12-22T11:53:28.809Z,7.40
2017-12-22T11:55:58.271Z,7.50
2017-12-22T11:58:26.669Z,7.40
2017-12-22T12:00:55.008Z,7.40
2017-12-22T12:03:24.100Z,7.40
2017-12-22T12:05:52.456Z,7.40
2017-12-22T12:08:21.565Z,7.50
2017-12-22T12:10:49.905Z,7.50
2017-12-22T12:13:18.275Z,7.50
2017-12-22T12:15:46.603Z,7.50
2017-12-22T12:18:14.933Z,7.50
2017-12-22T12:20:43.312Z,7.50
2017-12-22T12:23:11.622Z,7.50
2017-12-22T12:25:40.010Z,7.50
2017-12-22T12:28:09.873Z,7.50
2017-12-22T12:30:38.236Z,7.50
2017-12-22T12:33:07.722Z,7.50
2017-12-22T12:35:36.033Z,7.60
2017-12-22T12:38:04.365Z,7.70
2017-12-22T12:40:33.453Z,7.90
2017-12-22T12:43:02.546Z,7.90
2017-12-22T12:45:31.657Z,8.00
2017-12-22T12:47:59.989Z,8.00
2017-12-22T12:50:28.314Z,8.00
2017-12-22T12:52:57.400Z,8.10
2017-12-22T12:55:26.499Z,8.20
2017-12-22T12:57:55.574Z,8.20
2017-12-22T13:00:24.675Z,8.20
2017-12-22T13:02:53.003Z,8.20
2017-12-22T13:05:21.309Z,8.30
2017-12-22T13:07:49.659Z,8.30
2017-12-22T13:10:17.991Z,8.30
2017-12-22T13:12:46.316Z,8.30
2017-12-22T13:15:14.620Z,8.30
2017-12-22T13:17:43.774Z,8.20
2017-12-22T13:20:12.088Z,8.20
2017-12-22T13:22:40.412Z,8.20
2017-12-22T13:25:09.998Z,8.10
2017-12-22T13:27:39.125Z,8.10
2017-12-22T13:30:07.546Z,8.10
2017-12-22T13:32:37.807Z,8.10
2017-12-22T13:35:06.177Z,8.00
2017-12-22T13:37:34.483Z,8.00
2017-12-22T13:40:02.807Z,8.00
2017-12-22T13:42:31.132Z,8.00
2017-12-22T13:45:00.242Z,7.90
2017-12-22T13:47:28.585Z,7.90
2017-12-22T13:49:56.905Z,7.90
2017-12-22T13:52:25.261Z,7.90
2017-12-22T13:54:53.552Z,7.90
2017-12-22T13:57:21.889Z,7.90
2017-12-22T13:59:50.222Z,7.90
2017-12-22T14:02:19.289Z,7.80
2017-12-22T14:04:47.611Z,7.80
2017-12-22T14:07:15.922Z,7.80
2017-12-22T14:09:45.027Z,7.80
2017-12-22T14:12:14.290Z,7.80
2017-12-22T14:14:42.624Z,7.80
2017-12-22T14:17:10.952Z,7.80
2017-12-22T14:19:40.042Z,7.90
2017-12-22T14:22:08.822Z,7.80
2017-12-22T14:24:37.117Z,7.90
2017-12-22T14:27:05.438Z,7.90
2017-12-22T14:29:33.775Z,7.90
2017-12-22T14:32:02.086Z,7.90
2017-12-22T14:34:30.415Z,7.90
2017-12-22T14:36:58.766Z,7.90
2017-12-22T14:39:27.216Z,7.90
2017-12-22T14:41:56.277Z,7.90
2017-12-22T14:44:24.621Z,7.90
2017-12-22T14:46:52.920Z,7.90
2017-12-22T14:49:21.242Z,8.00
2017-12-22T14:51:49.561Z,8.00
2017-12-22T14:54:17.906Z,7.90
2017-12-22T14:56:46.235Z,7.90
2017-12-22T14:59:14.545Z,7.80
2017-12-22T15:01:43.128Z,7.80
2017-12-22T15:04:11.451Z,7.80
2017-12-22T15:06:39.795Z,7.80
2017-12-22T15:09:08.104Z,7.80
2017-12-22T15:11:37.205Z,7.80
2017-12-22T15:14:06.305Z,7.80
2017-12-22T15:16:34.654Z,7.80
2017-12-22T15:19:02.973Z,7.80
2017-12-22T15:21:32.072Z,7.80
2017-12-22T15:24:00.371Z,7.80
2017-12-22T15:26:28.697Z,7.80
2017-12-22T15:28:59.635Z,7.80
2017-12-22T15:31:28.468Z,7.80
2017-12-22T15:33:56.781Z,7.80
2017-12-22T15:36:25.096Z,7.80
2017-12-22T15:38:53.394Z,7.70
2017-12-22T15:41:21.717Z,7.70
2017-12-22T15:43:50.027Z,7.70
2017-12-22T15:46:19.121Z,7.70
2017-12-22T15:48:47.473Z,7.70
2017-12-22T15:51:16.567Z,7.60
2017-12-22T15:53:44.890Z,7.60
2017-12-22T15:56:13.253Z,7.70
2017-12-22T15:58:41.570Z,7.60
2017-12-22T16:01:09.883Z,7.60
2017-12-22T16:03:38.995Z,7.60
2017-12-22T16:06:08.061Z,7.60
2017-12-22T16:08:36.496Z,7.60
2017-12-22T16:11:04.901Z,7.60
2017-12-22T16:13:33.242Z,7.60
2017-12-22T16:16:01.549Z,7.60
2017-12-22T16:18:29.875Z,7.60
2017-12-22T16:20:58.230Z,7.70
2017-12-22T16:23:27.328Z,7.70
2017-12-22T16:25:55.662Z,7.60
2017-12-22T16:28:24.730Z,7.60
2017-12-22T16:30:53.036Z,7.60
2017-12-22T16:33:21.413Z,7.60
2017-12-22T16:35:49.754Z,7.70
2017-12-22T16:38:18.632Z,7.70
2017-12-22T16:40:47.420Z,7.70
2017-12-22T16:43:15.752Z,7.70
2017-12-22T16:45:44.233Z,7.60
2017-12-22T16:48:12.581Z,7.70
2017-12-22T16:50:40.894Z,7.70
2017-12-22T16:53:09.209Z,7.70
2017-12-22T16:55:37.504Z,7.70
2017-12-22T16:58:05.833Z,7.70
2017-12-22T17:00:34.165Z,7.70
2017-12-22T17:03:03.269Z,7.70
2017-12-22T17:05:31.621Z,7.60
2017-12-22T17:08:00.301Z,7.70
2017-12-22T17:10:28.720Z,7.60
2017-12-22T17:12:57.055Z,7.70
2017-12-22T17:15:25.370Z,7.70
2017-12-22T17:17:53.724Z,7.70
2017-12-22T17:20:22.044Z,7.70
2017-12-22T17:22:50.346Z,7.70
2017-12-22T17:25:19.670Z,7.70
2017-12-22T17:27:48.314Z,7.60
2017-12-22T17:30:17.373Z,7.70
2017-12-22T17:32:45.803Z,7.60
2017-12-22T17:35:14.934Z,7.70
2017-12-22T17:37:43.272Z,7.60
2017-12-22T17:40:11.581Z,7.70
2017-12-22T17:42:39.920Z,7.70
2017-12-22T17:45:08.215Z,7.70
2017-12-22T17:47:36.547Z,7.70
2017-12-22T17:50:05.676Z,7.70
2017-12-22T17:52:35.909Z,7.70
2017-12-22T17:55:04.225Z,7.70
2017-12-22T17:57:33.316Z,7.70
2017-12-22T18:00:02.416Z,7.70
2017-12-22T18:02:30.752Z,7.70
2017-12-22T18:04:59.061Z,7.70
2017-12-22T18:07:27.443Z,7.70
2017-12-22T18:09:55.752Z,7.70
2017-12-22T18:12:24.083Z,7.70
2017-12-22T18:14:53.161Z,7.60
2017-12-22T18:17:22.259Z,7.60
2017-12-22T18:19:51.336Z,7.60
2017-12-22T18:22:20.442Z,7.70
2017-12-22T18:24:49.708Z,7.70
2017-12-22T18:27:18.922Z,7.70
2017-12-22T18:29:47.293Z,7.70
2017-12-22T18:32:15.622Z,7.70
2017-12-22T18:34:43.925Z,7.70
2017-12-22T18:37:12.223Z,7.60
2017-12-22T18:39:40.558Z,7.60
2017-12-22T18:42:09.687Z,7.70
2017-12-22T18:44:37.998Z,7.70
2017-12-22T18:47:06.292Z,7.70
2017-12-22T18:49:35.402Z,7.70
2017-12-22T18:52:03.706Z,7.60
2017-12-22T18:54:32.040Z,7.70
2017-12-22T18:57:00.453Z,7.70
2017-12-22T18:59:28.857Z,7.70
2017-12-22T19:01:57.285Z,7.70
2017-12-22T19:04:25.667Z,7.70
2017-12-22T19:06:54.079Z,7.70
2017-12-22T19:09:22.415Z,7.70
2017-12-22T19:11:50.726Z,7.70
2017-12-22T19:14:19.837Z,7.60
2017-12-22T19:16:48.168Z,7.60
2017-12-22T19:19:16.470Z,7.60
2017-12-22T19:21:44.830Z,7.60
2017-12-22T19:24:13.161Z,7.60
2017-12-22T19:26:41.453Z,7.60
2017-12-22T19:29:09.766Z,7.70
2017-12-22T19:31:38.076Z,7.60
2017-12-22T19:34:06.418Z,7.70
2017-12-22T19:36:34.754Z,7.70
2017-12-22T19:39:03.066Z,7.70
2017-12-22T19:41:31.405Z,7.70
2017-12-22T19:44:00.706Z,7.70
2017-12-22T19:46:29.782Z,7.70
2017-12-22T19:48:58.125Z,7.70
2017-12-22T19:51:26.451Z,7.70
2017-12-22T19:53:54.760Z,7.60
2017-12-22T19:56:23.107Z,7.60
2017-12-22T19:58:51.442Z,7.60
2017-12-22T20:01:19.773Z,7.60
2017-12-22T20:03:49.033Z,7.60
2017-12-22T20:06:18.168Z,7.60
2017-12-22T20:08:47.296Z,7.60
2017-12-22T20:11:16.484Z,7.50
2017-12-22T20:13:45.761Z,7.50
2017-12-22T20:16:14.862Z,7.50
2017-12-22T20:18:43.156Z,7.40
2017-12-22T20:21:11.568Z,7.50
2017-12-22T20:23:39.925Z,7.40
2017-12-22T20:26:09.017Z,7.40
2017-12-22T20:28:37.349Z,7.40
2017-12-22T20:31:06.485Z,7.40
2017-12-22T20:33:34.820Z,7.40
2017-12-22T20:36:03.160Z,7.40
2017-12-22T20:38:31.554Z,7.40
2017-12-22T20:40:59.911Z,7.40
2017-12-22T20:43:28.238Z,7.40
2017-12-22T20:45:56.533Z,7.40
2017-12-22T20:48:24.900Z,7.40
2017-12-22T20:50:53.208Z,7.40
2017-12-22T20:53:21.504Z,7.40
2017-12-22T20:55:49.825Z,7.40
2017-12-22T20:58:18.723Z,7.40
2017-12-22T21:00:47.065Z,7.40
2017-12-22T21:03:15.434Z,7.40
2017-12-22T21:05:43.749Z,7.40
2017-12-22T21:08:12.065Z,7.40
2017-12-22T21:10:41.188Z,7.40
2017-12-22T21:13:09.492Z,7.40
2017-12-22T21:15:37.844Z,7.40
2017-12-22T21:18:06.144Z,7.40
2017-12-22T21:20:34.475Z,7.40
2017-12-22T21:23:02.811Z,7.40
2017-12-22T21:25:31.105Z,7.40
2017-12-22T21:27:59.449Z,7.40
2017-12-22T21:30:27.784Z,7.40
2017-12-22T21:32:56.865Z,7.40
2017-12-22T21:35:25.974Z,7.40
2017-12-22T21:37:54.278Z,7.40
2017-12-22T21:40:23.396Z,7.40
2017-12-22T21:42:51.698Z,7.40
2017-12-22T21:45:20.030Z,7.40
2017-12-22T21:47:48.371Z,7.40
2017-12-22T21:50:16.720Z,7.40
2017-12-22T21:52:45.023Z,7.40
2017-12-22T21:55:13.359Z,7.40
2017-12-22T21:57:41.704Z,7.40
2017-12-22T22:00:10.045Z,7.40
2017-12-22T22:02:39.150Z,7.40
2017-12-22T22:05:07.517Z,7.30
2017-12-22T22:10:40.545Z,7.30
2017-12-22T22:13:08.941Z,7.30
2017-12-22T22:15:37.368Z,7.30
2017-12-22T22:18:05.688Z,7.30
2017-12-22T22:20:34.797Z,7.20
2017-12-22T22:23:03.886Z,7.20
2017-12-22T22:25:32.243Z,7.20
2017-12-22T22:28:00.592Z,7.30
2017-12-22T22:30:29.050Z,7.20
2017-12-22T22:32:57.443Z,7.30
2017-12-22T22:35:25.832Z,7.30
2017-12-22T22:37:55.913Z,7.20
2017-12-22T22:40:25.061Z,7.20
2017-12-22T22:42:54.371Z,7.20
2017-12-22T22:45:23.690Z,7.20
2017-12-22T22:47:52.764Z,7.20
2017-12-22T22:50:21.171Z,7.20
2017-12-22T22:52:49.474Z,7.20
2017-12-22T22:55:17.781Z,7.20
2017-12-22T22:57:46.115Z,7.20
2017-12-22T23:00:15.172Z,7.20
2017-12-22T23:02:43.555Z,7.10
2017-12-22T23:05:11.898Z,7.20
2017-12-22T23:07:41.074Z,7.10
2017-12-22T23:10:10.165Z,7.10
2017-12-22T23:12:39.262Z,7.10
2017-12-22T23:15:07.569Z,7.10
2017-12-22T23:17:35.920Z,7.10
2017-12-22T23:20:04.238Z,7.10
2017-12-22T23:22:32.591Z,7.10
2017-12-22T23:25:00.912Z,7.10
2017-12-22T23:27:29.265Z,7.10
2017-12-22T23:29:57.598Z,7.10
2017-12-22T23:32:25.894Z,7.10
2017-12-22T23:34:55.896Z,7.10
2017-12-22T23:37:24.198Z,7.10
2017-12-22T23:39:52.525Z,7.10
2017-12-22T23:42:21.677Z,7.10
2017-12-22T23:44:50.768Z,7.10
2017-12-22T23:47:19.874Z,7.10
2017-12-22T23:49:48.191Z,7.10
2017-12-22T23:52:16.505Z,7.00
2017-12-22T23:54:44.878Z,7.00
2017-12-22T23:57:13.218Z,7.00
2017-12-22T23:59:41.562Z,7.00
